Airways and Terminal Forecast

Significant Meteorological Information

WSPH31 RPLL 100245 
RPHI SIGMET A01 VALID 100250/100650 RPLL-
RPHI MANILA FIR EMBD TS OBS WI N1901 E12022 - N1258 E11814 - N1144 E11400 - N1640 E11400 - N2100 E11730 - N2100 E11846 - N1901 E12022 TOP FL520 MOV WNW 5KT NC=

Terminal Aerodrome Forecast

TAF RPLL

 

100500Z 1006/1112 26007KT 9999 FEW025 SCT100 BKN300 TX32/1006Z TN26/1021Z TEMPO 1007/1013 -SHRA FEW022CB SCT023 BKN090 TEMPO 1018/1024 VRB02KT=

TAF RPVM

100500Z 1006/1112 18004KT 9999 FEW020 BKN300 TEMPO 1006/1012 VRB03KT -SHRA FEW018CB OVC100 TEMPO 1012/1018 9000 -TSRA SCT018CB OVC090=

TAF RPLC

100500Z 1006/1112 18012KT 7000 SCT020 BKN100 TX32/1006Z TN24/1021Z TEMPO 1006/1012 20010KT 6000 -TSRA FEW015CB SCT020 OVC100=

TAF RPLB

100500Z 1006/1106 20006KT 9999 FEW018 BKN300 TX30/1006Z TN24/1021Z TEMPO 1006/1012 21010KT FEW017CB SCT018 BKN080=

TAF RPLI

100500Z 1006/1106 27005KT 9999 FEW018 BKN280 TEMPO 1006/1012 14010KT 5000 TS SHRA SCT017CB OVC090 TEMPO 1104/1106 32006KT 8000 VCSH SCT018 BKN280=

TAF RPVP

100500Z 1006/1106 15007KT 9999 FEW019 SCT080 TEMPO 1006/1012 18013KT -TSRA FEW017CB SCT019 BKN080 BECMG 1014/1016 27004KT=

TAF RPVD

100500Z 1006/1106 11007KT 9999 FEW015 SCT070 BKN220 TEMPO 1006/1012 -SHRA SCT014CB BKN070 BECMG 1012/1014 29004KT=

TAF RPMR

100500Z 1006/1106 14008KT 9999 FEW018 SCT080 BKN250 TEMPO 1006/1012 -SHRA SCT017CB BKN080 BECMG 1013/1015 29004KT=

TAF RPMD

100500Z 1006/1106 13007KT 9999 FEW016 SCT090 BKN290 TEMPO 1006/1012 -SHRA SCT015CB BKN090 OVC260 BECMG 1014/1016 32003KT=

TAF RPMZ

100500Z 1006/1106 26006KT 9999 FEW017 SCT090 BKN300 TEMPO 1006/1012 VRB06KT -SHRA SCT016CB BKN090 BECMG 1016/1018 08005KT=

TAF RPVK

100500Z 1006/1106 22005KT 9999 FEW016 SCT070 BKN240 TEMPO 1009/1015 VRB06KT -SHRA FEW015CB SCT016 BKN070=

 

RPLL FORECAST TAKE-OFF CONDITION

TIME

(UTC)

WIND

(dddffKT)

TEMP

(°C)

QNH

(hPa)

TIME

(UTC)

WIND

(dddffKT)

TEMP

(°C)

QNH

(hPa)

0600

26006KT

32.0

1007.0

1000

27007KT

29.0

1008.0

0700

26008KT

31.0

1006.5

1100

26006KT

29.0

1008.5

0800

26008KT

30.5

1006.5

1200

26006KT

28.5

1009.0

0900

26008KT

30.0

1007.0

1300

26005KT

28.0

1009.5

 

ISSUED AT NAIA AMSS-WD/PAGASA-DOST FOR 0500UTC 10 AUGUST 2022

PREPARED BY:   MPT

CHECKED BY:     SJII